createdAt,value
2018-04-22T00:00:09.676Z,100968
2018-04-22T00:02:37.980Z,100961
2018-04-22T00:05:06.300Z,100959
2018-04-22T00:07:34.629Z,100955
2018-04-22T00:10:03.742Z,100950
2018-04-22T00:12:32.828Z,100949
2018-04-22T00:15:01.170Z,100952
2018-04-22T00:17:29.525Z,100952
2018-04-22T00:19:57.974Z,100944
2018-04-22T00:22:27.185Z,100943
2018-04-22T00:24:55.489Z,100941
2018-04-22T00:27:23.814Z,100941
2018-04-22T00:29:52.369Z,100932
2018-04-22T00:32:20.875Z,100940
2018-04-22T00:34:49.256Z,100926
2018-04-22T00:37:18.346Z,100924
2018-04-22T00:39:48.823Z,100920
2018-04-22T00:42:17.207Z,100918
2018-04-22T00:44:45.686Z,100912
2018-04-22T00:47:13.981Z,100904
2018-04-22T00:49:42.316Z,100895
2018-04-22T00:52:10.621Z,100892
2018-04-22T00:54:38.966Z,100892
2018-04-22T00:57:08.097Z,100889
2018-04-22T00:59:36.522Z,100891
2018-04-22T01:02:05.046Z,100885
2018-04-22T01:04:33.521Z,100874
2018-04-22T01:07:03.008Z,100881
2018-04-22T01:09:32.086Z,100874
2018-04-22T01:12:01.362Z,100875
2018-04-22T01:14:29.856Z,100873
2018-04-22T01:16:58.185Z,100869
2018-04-22T01:19:26.465Z,100868
2018-04-22T01:21:54.976Z,100867
2018-04-22T01:24:23.409Z,100870
2018-04-22T01:26:51.886Z,100869
2018-04-22T01:29:20.999Z,100865
2018-04-22T01:31:49.335Z,100862
2018-04-22T01:34:18.452Z,100855
2018-04-22T01:36:47.616Z,100855
2018-04-22T01:39:16.000Z,100854
2018-04-22T01:41:44.307Z,100855
2018-04-22T01:44:13.526Z,100844
2018-04-22T01:46:41.877Z,100852
2018-04-22T01:49:11.087Z,100849
2018-04-22T01:51:40.423Z,100848
2018-04-22T01:54:08.757Z,100850
2018-04-22T01:56:37.895Z,100845
2018-04-22T01:59:06.284Z,100843
2018-04-22T02:01:34.631Z,100835
2018-04-22T02:04:03.204Z,100836
2018-04-22T02:06:31.530Z,100833
2018-04-22T02:08:59.831Z,100831
2018-04-22T02:11:29.055Z,100835
2018-04-22T02:13:58.340Z,100832
2018-04-22T02:16:27.444Z,100827
2018-04-22T02:18:56.596Z,100826
2018-04-22T02:21:24.975Z,100822
2018-04-22T02:23:54.013Z,100819
2018-04-22T02:26:23.221Z,100811
2018-04-22T02:28:51.609Z,100813
2018-04-22T02:31:19.950Z,100814
2018-04-22T02:33:48.228Z,100817
2018-04-22T02:36:16.503Z,100815
2018-04-22T02:38:45.634Z,100810
2018-04-22T02:41:13.950Z,100809
2018-04-22T02:43:42.227Z,100801
2018-04-22T02:46:11.669Z,100800
2018-04-22T02:48:40.828Z,100797
2018-04-22T02:51:09.200Z,100800
2018-04-22T02:53:37.518Z,100785
2018-04-22T02:56:06.654Z,100801
2018-04-22T02:58:35.049Z,100796
2018-04-22T03:01:03.466Z,100788
2018-04-22T03:03:32.791Z,100785
2018-04-22T03:06:01.234Z,100785
2018-04-22T03:08:29.555Z,100786
2018-04-22T03:10:57.825Z,100779
2018-04-22T03:13:26.205Z,100772
2018-04-22T03:15:54.480Z,100768
2018-04-22T03:18:23.201Z,100765
2018-04-22T03:20:51.558Z,100760
2018-04-22T03:23:19.985Z,100760
2018-04-22T03:25:48.312Z,100752
2018-04-22T03:28:16.817Z,100756
2018-04-22T03:30:45.486Z,100751
2018-04-22T03:33:13.756Z,100751
2018-04-22T03:35:42.170Z,100749
2018-04-22T03:38:10.587Z,100744
2018-04-22T03:40:39.696Z,100747
2018-04-22T03:43:08.093Z,100747
2018-04-22T03:45:36.562Z,100743
2018-04-22T03:48:06.717Z,100737
2018-04-22T03:50:35.446Z,100739
2018-04-22T03:53:04.557Z,100732
2018-04-22T03:55:32.982Z,100723
2018-04-22T03:58:01.618Z,100720
2018-04-22T04:00:30.768Z,100719
2018-04-22T04:02:59.062Z,100713
2018-04-22T04:05:28.188Z,100707
2018-04-22T04:07:57.253Z,100702
2018-04-22T04:10:25.581Z,100700
2018-04-22T04:12:54.109Z,100698
2018-04-22T04:15:22.572Z,100693
2018-04-22T04:21:37.097Z,100688
2018-04-22T04:27:45.927Z,100682
2018-04-22T04:30:14.235Z,100679
2018-04-22T04:32:42.502Z,100679
2018-04-22T04:35:11.646Z,100680
2018-04-22T04:37:39.978Z,100679
2018-04-22T04:40:09.032Z,100671
2018-04-22T04:42:37.556Z,100672
2018-04-22T04:45:05.858Z,100667
2018-04-22T04:47:34.291Z,100669
2018-04-22T04:50:03.498Z,100669
2018-04-22T04:52:33.781Z,100666
2018-04-22T04:55:02.317Z,100664
2018-04-22T04:57:30.773Z,100657
2018-04-22T05:00:01.872Z,100655
2018-04-22T05:02:30.207Z,100649
2018-04-22T05:04:59.343Z,100653
2018-04-22T05:07:27.666Z,100655
2018-04-22T05:09:56.726Z,100653
2018-04-22T05:12:25.108Z,100656
2018-04-22T05:14:53.548Z,100652
2018-04-22T05:17:21.917Z,100653
2018-04-22T05:19:51.219Z,100648
2018-04-22T05:22:19.538Z,100643
2018-04-22T05:24:48.123Z,100637
2018-04-22T05:27:16.618Z,100635
2018-04-22T05:29:44.933Z,100627
2018-04-22T05:32:14.026Z,100631
2018-04-22T05:34:43.206Z,100635
2018-04-22T05:37:12.305Z,100636
2018-04-22T05:39:41.487Z,100631
2018-04-22T05:42:10.013Z,100630
2018-04-22T05:44:38.309Z,100627
2018-04-22T05:47:06.746Z,100626
2018-04-22T05:49:36.072Z,100622
2018-04-22T05:52:04.373Z,100622
2018-04-22T05:54:32.772Z,100619
2018-04-22T05:57:01.342Z,100611
2018-04-22T05:59:29.680Z,100605
2018-04-22T06:01:58.829Z,100601
2018-04-22T06:04:27.113Z,100608
2018-04-22T06:06:55.461Z,100603
2018-04-22T06:09:23.785Z,100601
2018-04-22T06:11:52.545Z,100601
2018-04-22T06:14:20.868Z,100601
2018-04-22T06:16:50.129Z,100597
2018-04-22T06:19:18.432Z,100589
2018-04-22T06:21:47.544Z,100589
2018-04-22T06:24:15.826Z,100581
2018-04-22T06:26:44.169Z,100586
2018-04-22T06:29:13.603Z,100578
2018-04-22T06:31:42.802Z,100574
2018-04-22T06:34:11.379Z,100579
2018-04-22T06:36:40.419Z,100573
2018-04-22T06:39:08.787Z,100570
2018-04-22T06:41:37.468Z,100568
2018-04-22T06:44:05.917Z,100567
2018-04-22T06:46:34.975Z,100566
2018-04-22T06:49:01.937Z,100566
2018-04-22T06:51:29.637Z,100556
2018-04-22T06:53:56.389Z,100554
2018-04-22T06:56:23.223Z,100554
2018-04-22T06:58:50.076Z,100553
2018-04-22T07:01:17.017Z,100553
2018-04-22T07:03:43.754Z,100546
2018-04-22T07:06:10.616Z,100542
2018-04-22T07:08:37.429Z,100545
2018-04-22T07:11:04.321Z,100544
2018-04-22T07:13:31.226Z,100542
2018-04-22T07:15:58.114Z,100537
2018-04-22T07:18:25.025Z,100538
2018-04-22T07:20:52.004Z,100537
2018-04-22T07:23:18.823Z,100532
2018-04-22T07:25:45.809Z,100530
2018-04-22T07:28:13.463Z,100528
2018-04-22T07:30:40.325Z,100527
2018-04-22T07:33:07.910Z,100528
2018-04-22T07:35:35.928Z,100530
2018-04-22T07:38:03.544Z,100526
2018-04-22T07:40:30.432Z,100528
2018-04-22T07:42:57.208Z,100527
2018-04-22T07:45:24.923Z,100533
2018-04-22T07:47:51.783Z,100529
2018-04-22T07:50:18.652Z,100528
2018-04-22T07:52:46.240Z,100529
2018-04-22T07:55:13.123Z,100520
2018-04-22T08:00:13.394Z,100525
2018-04-22T08:02:41.327Z,100525
2018-04-22T08:05:08.234Z,100519
2018-04-22T08:07:35.179Z,100521
2018-04-22T08:10:01.947Z,100519
2018-04-22T08:12:30.443Z,100515
2018-04-22T08:14:57.289Z,100518
2018-04-22T08:17:24.120Z,100518
2018-04-22T08:19:51.291Z,100510
2018-04-22T08:22:18.905Z,100506
2018-04-22T08:24:45.733Z,100504
2018-04-22T08:27:12.614Z,100507
2018-04-22T08:29:39.738Z,100506
2018-04-22T08:32:06.639Z,100500
2018-04-22T08:34:34.219Z,100504
2018-04-22T08:37:01.225Z,100504
2018-04-22T08:39:28.118Z,100495
2018-04-22T08:41:55.385Z,100500
2018-04-22T08:44:22.360Z,100490
2018-04-22T08:46:49.303Z,100495
2018-04-22T08:49:16.428Z,100489
2018-04-22T08:51:44.280Z,100485
2018-04-22T08:54:11.357Z,100482
2018-04-22T08:56:38.389Z,100484
2018-04-22T08:59:05.429Z,100479
2018-04-22T09:01:32.454Z,100483
2018-04-22T09:03:59.239Z,100478
2018-04-22T09:06:26.068Z,100474
2018-04-22T09:08:54.113Z,100473
2018-04-22T09:11:20.985Z,100472
2018-04-22T09:13:47.881Z,100467
2018-04-22T09:16:15.030Z,100466
2018-04-22T09:18:41.849Z,100466
2018-04-22T09:21:09.478Z,100471
2018-04-22T09:23:37.267Z,100468
2018-04-22T09:26:04.548Z,100466
2018-04-22T09:28:31.731Z,100469
2018-04-22T09:30:58.561Z,100465
2018-04-22T09:33:25.792Z,100460
2018-04-22T09:35:52.959Z,100458
2018-04-22T09:38:20.028Z,100460
2018-04-22T09:40:47.268Z,100457
2018-04-22T09:43:14.493Z,100464
2018-04-22T09:45:41.376Z,100463
2018-04-22T09:48:08.427Z,100458
2018-04-22T09:50:35.263Z,100460
2018-04-22T09:53:03.069Z,100451
2018-04-22T09:55:30.003Z,100443
2018-04-22T09:57:57.030Z,100443
2018-04-22T10:00:29.782Z,100444
2018-04-22T10:02:58.336Z,100447
2018-04-22T10:05:25.129Z,100438
2018-04-22T10:07:52.707Z,100439
2018-04-22T10:10:19.884Z,100427
2018-04-22T10:12:46.994Z,100427
2018-04-22T10:15:14.010Z,100424
2018-04-22T10:17:41.768Z,100419
2018-04-22T10:20:08.870Z,100418
2018-04-22T10:22:35.782Z,100414
2018-04-22T10:25:02.788Z,100417
2018-04-22T10:27:29.953Z,100407
2018-04-22T10:29:57.842Z,100411
2018-04-22T10:32:24.796Z,100413
2018-04-22T10:34:51.933Z,100407
2018-04-22T10:37:19.428Z,100412
2018-04-22T10:39:46.959Z,100409
2018-04-22T10:42:13.916Z,100406
2018-04-22T10:44:40.940Z,100402
2018-04-22T10:47:08.854Z,100392
2018-04-22T10:49:36.049Z,100395
2018-04-22T10:52:03.997Z,100388
2018-04-22T10:54:30.820Z,100389
2018-04-22T10:56:57.963Z,100387
2018-04-22T10:59:24.728Z,100388
2018-04-22T11:01:51.532Z,100381
2018-04-22T11:04:18.347Z,100367
2018-04-22T11:06:45.298Z,100373
2018-04-22T11:09:12.234Z,100371
2018-04-22T11:11:39.374Z,100368
2018-04-22T11:14:06.449Z,100370
2018-04-22T11:16:33.486Z,100364
2018-04-22T11:19:00.378Z,100359
2018-04-22T11:21:27.786Z,100366
2018-04-22T11:23:54.891Z,100358
2018-04-22T11:26:22.635Z,100359
2018-04-22T11:28:49.675Z,100349
2018-04-22T11:31:16.791Z,100352
2018-04-22T11:33:43.815Z,100345
2018-04-22T11:36:10.654Z,100338
2018-04-22T11:38:37.471Z,100328
2018-04-22T11:41:05.143Z,100327
2018-04-22T11:43:32.105Z,100329
2018-04-22T11:45:58.905Z,100325
2018-04-22T11:48:26.672Z,100322
2018-04-22T11:50:54.207Z,100316
2018-04-22T11:53:21.303Z,100314
2018-04-22T11:55:48.083Z,100311
2018-04-22T11:58:15.038Z,100310
2018-04-22T12:00:42.070Z,100315
2018-04-22T12:03:09.194Z,100317
2018-04-22T12:05:35.952Z,100316
2018-04-22T12:08:03.605Z,100311
2018-04-22T12:10:30.473Z,100307
2018-04-22T12:12:57.245Z,100307
2018-04-22T12:15:24.858Z,100305
2018-04-22T12:17:52.080Z,100297
2018-04-22T12:20:18.899Z,100296
2018-04-22T12:22:45.744Z,100299
2018-04-22T12:25:12.685Z,100289
2018-04-22T12:27:39.661Z,100283
2018-04-22T12:30:06.639Z,100279
2018-04-22T12:32:33.629Z,100276
2018-04-22T12:35:00.480Z,100273
2018-04-22T12:37:27.422Z,100269
2018-04-22T12:39:54.380Z,100253
2018-04-22T12:42:21.436Z,100249
2018-04-22T12:44:48.276Z,100248
2018-04-22T12:47:16.295Z,100235
2018-04-22T12:49:44.016Z,100233
2018-04-22T12:52:10.850Z,100233
2018-04-22T12:54:39.348Z,100236
2018-04-22T12:57:06.250Z,100235
2018-04-22T12:59:33.154Z,100239
2018-04-22T13:02:00.811Z,100239
2018-04-22T13:04:28.381Z,100234
2018-04-22T13:06:56.072Z,100234
2018-04-22T13:09:23.045Z,100228
2018-04-22T13:11:50.042Z,100225
2018-04-22T13:14:16.940Z,100218
2018-04-22T13:16:43.732Z,100209
2018-04-22T13:19:10.792Z,100205
2018-04-22T13:21:37.606Z,100208
2018-04-22T13:24:04.351Z,100207
2018-04-22T13:26:31.196Z,100222
2018-04-22T13:28:58.076Z,100226
2018-04-22T13:31:25.067Z,100232
2018-04-22T13:33:52.605Z,100235
2018-04-22T13:36:19.409Z,100231
2018-04-22T13:38:46.389Z,100232
2018-04-22T13:41:13.249Z,100229
2018-04-22T13:43:40.867Z,100215
2018-04-22T13:46:07.745Z,100189
2018-04-22T13:48:35.402Z,100165
2018-04-22T13:51:02.965Z,100153
2018-04-22T13:53:30.566Z,100153
2018-04-22T13:55:57.575Z,100155
2018-04-22T13:58:24.476Z,100163
2018-04-22T14:00:51.390Z,100165
2018-04-22T14:03:18.230Z,100169
2018-04-22T14:05:45.050Z,100189
2018-04-22T14:08:12.221Z,100204
2018-04-22T14:10:39.013Z,100219
2018-04-22T14:13:06.602Z,100250
2018-04-22T14:15:33.590Z,100299
2018-04-22T14:18:00.508Z,100306
2018-04-22T14:20:27.478Z,100312
2018-04-22T14:22:54.405Z,100275
2018-04-22T14:25:21.370Z,100198
2018-04-22T14:27:49.106Z,100179
2018-04-22T14:30:16.038Z,100250
2018-04-22T14:32:42.989Z,100248
2018-04-22T14:35:10.027Z,100234
2018-04-22T14:37:36.991Z,100264
2018-04-22T14:40:03.887Z,100250
2018-04-22T14:42:30.929Z,100239
2018-04-22T14:45:16.129Z,100223
2018-04-22T14:47:43.110Z,100211
2018-04-22T14:50:10.038Z,100207
2018-04-22T14:52:36.824Z,100199
2018-04-22T14:55:04.352Z,100189
2018-04-22T14:57:31.609Z,100181
2018-04-22T14:59:59.183Z,100169
2018-04-22T15:02:26.943Z,100163
2018-04-22T15:04:54.668Z,100159
2018-04-22T15:07:21.588Z,100158
2018-04-22T15:09:49.451Z,100152
2018-04-22T15:12:16.302Z,100160
2018-04-22T15:14:43.256Z,100163
2018-04-22T15:17:10.144Z,100163
2018-04-22T15:19:37.783Z,100162
2018-04-22T15:22:04.800Z,100162
2018-04-22T15:24:31.641Z,100163
2018-04-22T15:26:58.712Z,100167
2018-04-22T15:29:25.909Z,100177
2018-04-22T15:31:52.805Z,100184
2018-04-22T15:34:19.798Z,100181
2018-04-22T15:36:46.661Z,100174
2018-04-22T15:39:13.895Z,100178
2018-04-22T15:41:40.705Z,100166
2018-04-22T15:44:08.505Z,100161
2018-04-22T15:46:35.650Z,100155
2018-04-22T15:49:02.691Z,100151
2018-04-22T15:51:29.855Z,100150
2018-04-22T15:53:56.857Z,100143
2018-04-22T15:56:24.776Z,100127
2018-04-22T15:58:51.703Z,100133
2018-04-22T16:01:18.645Z,100138
2018-04-22T16:03:45.550Z,100131
2018-04-22T16:06:13.525Z,100146
2018-04-22T16:08:41.128Z,100147
2018-04-22T16:11:08.059Z,100154
2018-04-22T16:13:36.050Z,100153
2018-04-22T16:16:02.898Z,100146
2018-04-22T16:18:29.859Z,100131
2018-04-22T16:20:56.772Z,100126
2018-04-22T16:23:23.833Z,100120
2018-04-22T16:25:57.910Z,100118
2018-04-22T16:28:25.191Z,100127
2018-04-22T16:30:52.046Z,100117
2018-04-22T16:33:18.958Z,100116
2018-04-22T16:35:46.322Z,100105
2018-04-22T16:38:13.139Z,100109
2018-04-22T16:40:40.108Z,100114
2018-04-22T16:43:07.095Z,100110
2018-04-22T16:45:34.805Z,100115
2018-04-22T16:48:01.712Z,100099
2018-04-22T16:50:28.880Z,100083
2018-04-22T16:52:55.817Z,100083
2018-04-22T16:55:23.070Z,100074
2018-04-22T16:57:51.049Z,100074
2018-04-22T17:00:17.854Z,100075
2018-04-22T17:02:44.936Z,100071
2018-04-22T17:05:11.881Z,100069
2018-04-22T17:07:38.706Z,100071
2018-04-22T17:10:05.650Z,100068
2018-04-22T17:12:32.605Z,100064
2018-04-22T17:14:59.407Z,100065
2018-04-22T17:17:27.020Z,100074
2018-04-22T17:19:53.952Z,100087
2018-04-22T17:22:20.824Z,100088
2018-04-22T17:24:47.686Z,100092
2018-04-22T17:27:15.455Z,100089
2018-04-22T17:29:42.986Z,100095
2018-04-22T17:32:09.886Z,100088
2018-04-22T17:34:37.031Z,100081
2018-04-22T17:37:03.840Z,100084
2018-04-22T17:39:31.430Z,100073
2018-04-22T17:41:58.300Z,100070
2018-04-22T17:44:25.115Z,100075
2018-04-22T17:46:52.211Z,100074
2018-04-22T17:49:19.975Z,100071
2018-04-22T17:51:46.780Z,100074
2018-04-22T17:54:13.717Z,100063
2018-04-22T17:56:40.648Z,100061
2018-04-22T17:59:07.697Z,100059
2018-04-22T18:01:41.494Z,100059
2018-04-22T18:04:08.488Z,100064
2018-04-22T18:06:35.296Z,100064
2018-04-22T18:09:02.145Z,100059
2018-04-22T18:11:29.689Z,100073
2018-04-22T18:13:57.012Z,100074
2018-04-22T18:16:23.910Z,100077
2018-04-22T18:18:51.103Z,100083
2018-04-22T18:21:18.041Z,100088
2018-04-22T18:23:45.027Z,100096
2018-04-22T18:26:12.160Z,100105
2018-04-22T18:28:39.162Z,100108
2018-04-22T18:31:06.745Z,100117
2018-04-22T18:33:33.658Z,100130
2018-04-22T18:36:01.255Z,100133
2018-04-22T18:38:28.088Z,100132
2018-04-22T18:40:54.978Z,100132
2018-04-22T18:43:21.918Z,100135
2018-04-22T18:45:48.791Z,100137
2018-04-22T18:48:16.546Z,100141
2018-04-22T18:50:44.591Z,100159
2018-04-22T18:53:11.558Z,100175
2018-04-22T18:55:39.591Z,100192
2018-04-22T18:58:06.413Z,100208
2018-04-22T19:00:33.332Z,100227
2018-04-22T19:03:00.304Z,100234
2018-04-22T19:05:27.121Z,100245
2018-04-22T19:07:53.869Z,100251
2018-04-22T19:10:20.784Z,100264
2018-04-22T19:12:48.477Z,100266
2018-04-22T19:15:15.372Z,100265
2018-04-22T19:17:42.198Z,100271
2018-04-22T19:20:09.030Z,100269
2018-04-22T19:22:35.832Z,100272
2018-04-22T19:25:02.835Z,100280
2018-04-22T19:27:29.659Z,100273
2018-04-22T19:29:56.667Z,100274
2018-04-22T19:32:23.671Z,100280
2018-04-22T19:34:50.570Z,100280
2018-04-22T19:37:17.337Z,100292
2018-04-22T19:39:44.285Z,100297
2018-04-22T19:42:11.220Z,100301
2018-04-22T19:44:38.092Z,100299
2018-04-22T19:47:05.755Z,100304
2018-04-22T19:49:33.554Z,100305
2018-04-22T19:52:00.368Z,100308
2018-04-22T19:54:27.877Z,100315
2018-04-22T19:56:54.770Z,100309
2018-04-22T19:59:21.736Z,100313
2018-04-22T20:01:48.740Z,100311
2018-04-22T20:04:16.391Z,100314
2018-04-22T20:06:44.095Z,100315
2018-04-22T20:09:10.894Z,100318
2018-04-22T20:11:37.832Z,100320
2018-04-22T20:14:04.661Z,100319
2018-04-22T20:16:31.446Z,100322
2018-04-22T20:18:58.300Z,100317
2018-04-22T20:21:25.108Z,100320
2018-04-22T20:23:52.641Z,100319
2018-04-22T20:26:19.553Z,100322
2018-04-22T20:28:46.397Z,100325
2018-04-22T20:31:13.363Z,100332
2018-04-22T20:33:40.327Z,100326
2018-04-22T20:36:07.099Z,100329
2018-04-22T20:38:33.882Z,100328
2018-04-22T20:41:00.690Z,100324
2018-04-22T20:43:27.511Z,100331
2018-04-22T20:45:55.095Z,100333
2018-04-22T20:48:22.004Z,100331
2018-04-22T20:50:49.834Z,100329
2018-04-22T20:53:16.747Z,100323
2018-04-22T20:55:43.931Z,100325
2018-04-22T20:58:10.858Z,100329
2018-04-22T21:00:37.636Z,100330
2018-04-22T21:03:12.131Z,100323
2018-04-22T21:05:38.973Z,100326
2018-04-22T21:08:06.544Z,100326
2018-04-22T21:10:34.236Z,100324
2018-04-22T21:13:01.117Z,100328
2018-04-22T21:15:28.060Z,100332
2018-04-22T21:17:54.957Z,100335
2018-04-22T21:20:22.499Z,100337
2018-04-22T21:22:50.112Z,100340
2018-04-22T21:25:16.888Z,100339
2018-04-22T21:27:43.715Z,100336
2018-04-22T21:30:10.506Z,100331
2018-04-22T21:32:37.469Z,100336
2018-04-22T21:35:04.277Z,100331
2018-04-22T21:37:31.936Z,100334
2018-04-22T21:39:59.586Z,100335
2018-04-22T21:42:27.208Z,100339
2018-04-22T21:44:54.098Z,100339
2018-04-22T21:47:21.633Z,100340
2018-04-22T21:49:49.390Z,100338
2018-04-22T21:52:16.253Z,100335
2018-04-22T21:54:44.216Z,100341
2018-04-22T21:57:11.020Z,100333
2018-04-22T21:59:37.773Z,100334
2018-04-22T22:02:05.089Z,100330
2018-04-22T22:04:31.903Z,100331
2018-04-22T22:06:59.461Z,100328
2018-04-22T22:09:27.050Z,100329
2018-04-22T22:11:54.820Z,100337
2018-04-22T22:14:21.713Z,100327
2018-04-22T22:16:48.403Z,100325
2018-04-22T22:19:15.589Z,100308
2018-04-22T22:21:42.358Z,100327
2018-04-22T22:24:10.212Z,100328
2018-04-22T22:26:38.017Z,100331
2018-04-22T22:29:04.893Z,100328
2018-04-22T22:31:31.653Z,100329
2018-04-22T22:33:58.448Z,100325
2018-04-22T22:36:25.217Z,100321
2018-04-22T22:38:51.968Z,100323
2018-04-22T22:41:20.310Z,100317
2018-04-22T22:43:47.082Z,100316
2018-04-22T22:46:15.521Z,100313
2018-04-22T22:48:42.334Z,100311
2018-04-22T22:51:09.327Z,100312
2018-04-22T22:53:36.291Z,100310
2018-04-22T22:56:03.864Z,100310
2018-04-22T22:58:31.456Z,100308
2018-04-22T23:00:59.528Z,100310
2018-04-22T23:03:26.407Z,100308
2018-04-22T23:05:53.326Z,100305
2018-04-22T23:08:21.132Z,100302
2018-04-22T23:10:47.999Z,100303
2018-04-22T23:13:14.946Z,100297
2018-04-22T23:15:42.493Z,100294
2018-04-22T23:18:10.039Z,100294
2018-04-22T23:20:36.856Z,100284
2018-04-22T23:23:03.895Z,100286
2018-04-22T23:25:31.058Z,100286
2018-04-22T23:27:57.752Z,100291
2018-04-22T23:30:24.698Z,100302
2018-04-22T23:32:51.441Z,100311
2018-04-22T23:35:18.241Z,100308
2018-04-22T23:37:44.927Z,100310
2018-04-22T23:40:11.789Z,100316
2018-04-22T23:42:38.522Z,100324
2018-04-22T23:45:05.308Z,100321
2018-04-22T23:47:32.828Z,100313
2018-04-22T23:49:59.966Z,100311
2018-04-22T23:52:26.967Z,100305
2018-04-22T23:54:54.441Z,100302
2018-04-22T23:57:21.352Z,100299
2018-04-22T23:59:48.236Z,100303
